sensor_id;sensor_type;location;lat;lon;timestamp;P1;durP1;ratioP1;P2;durP2;ratioP2
12950;SDS011;6540;50.858;7.232;2024-03-17T00:01:31;0.40;;;0.40;;
12950;SDS011;6540;50.858;7.232;2024-03-17T00:03:57;0.43;;;0.43;;
12950;SDS011;6540;50.858;7.232;2024-03-17T00:06:23;0.60;;;0.60;;
12950;SDS011;6540;50.858;7.232;2024-03-17T00:08:49;0.50;;;0.50;;
12950;SDS011;6540;50.858;7.232;2024-03-17T00:11:15;0.50;;;0.50;;
12950;SDS011;6540;50.858;7.232;2024-03-17T00:13:40;0.40;;;0.40;;
12950;SDS011;6540;50.858;7.232;2024-03-17T00:16:06;0.40;;;0.40;;
12950;SDS011;6540;50.858;7.232;2024-03-17T00:18:32;0.43;;;0.43;;
12950;SDS011;6540;50.858;7.232;2024-03-17T00:20:57;0.40;;;0.40;;
12950;SDS011;6540;50.858;7.232;2024-03-17T00:23:24;0.40;;;0.40;;
12950;SDS011;6540;50.858;7.232;2024-03-17T00:25:49;0.40;;;0.40;;
12950;SDS011;6540;50.858;7.232;2024-03-17T00:28:15;0.40;;;0.40;;
12950;SDS011;6540;50.858;7.232;2024-03-17T00:30:41;0.40;;;0.40;;
12950;SDS011;6540;50.858;7.232;2024-03-17T00:33:06;0.40;;;0.40;;
12950;SDS011;6540;50.858;7.232;2024-03-17T00:35:32;0.37;;;0.37;;
12950;SDS011;6540;50.858;7.232;2024-03-17T00:37:58;0.90;;;0.90;;
12950;SDS011;6540;50.858;7.232;2024-03-17T00:40:23;0.40;;;0.40;;
12950;SDS011;6540;50.858;7.232;2024-03-17T00:42:48;0.43;;;0.43;;
12950;SDS011;6540;50.858;7.232;2024-03-17T00:45:14;0.40;;;0.40;;
12950;SDS011;6540;50.858;7.232;2024-03-17T00:47:40;0.47;;;0.47;;
12950;SDS011;6540;50.858;7.232;2024-03-17T00:50:05;0.50;;;0.50;;
12950;SDS011;6540;50.858;7.232;2024-03-17T00:52:36;1.57;;;1.57;;
12950;SDS011;6540;50.858;7.232;2024-03-17T00:55:01;0.50;;;0.50;;
12950;SDS011;6540;50.858;7.232;2024-03-17T00:57:27;0.67;;;0.67;;
12950;SDS011;6540;50.858;7.232;2024-03-17T00:59:53;0.30;;;0.30;;
12950;SDS011;6540;50.858;7.232;2024-03-17T01:02:18;0.50;;;0.50;;
12950;SDS011;6540;50.858;7.232;2024-03-17T01:04:44;0.40;;;0.40;;
12950;SDS011;6540;50.858;7.232;2024-03-17T01:07:10;0.50;;;0.50;;
12950;SDS011;6540;50.858;7.232;2024-03-17T01:09:36;0.43;;;0.43;;
12950;SDS011;6540;50.858;7.232;2024-03-17T01:12:01;0.50;;;0.50;;
12950;SDS011;6540;50.858;7.232;2024-03-17T01:14:27;0.70;;;0.70;;
12950;SDS011;6540;50.858;7.232;2024-03-17T01:16:53;0.47;;;0.47;;
12950;SDS011;6540;50.858;7.232;2024-03-17T01:19:19;0.53;;;0.53;;
12950;SDS011;6540;50.858;7.232;2024-03-17T01:21:45;0.33;;;0.33;;
12950;SDS011;6540;50.858;7.232;2024-03-17T01:24:10;0.37;;;0.37;;
12950;SDS011;6540;50.858;7.232;2024-03-17T01:26:36;0.47;;;0.47;;
12950;SDS011;6540;50.858;7.232;2024-03-17T01:29:04;0.30;;;0.30;;
12950;SDS011;6540;50.858;7.232;2024-03-17T01:31:30;0.37;;;0.37;;
12950;SDS011;6540;50.858;7.232;2024-03-17T01:33:55;0.50;;;0.50;;
12950;SDS011;6540;50.858;7.232;2024-03-17T01:36:20;0.50;;;0.50;;
12950;SDS011;6540;50.858;7.232;2024-03-17T01:38:46;0.50;;;0.50;;
12950;SDS011;6540;50.858;7.232;2024-03-17T01:41:11;0.50;;;0.50;;
12950;SDS011;6540;50.858;7.232;2024-03-17T01:43:38;0.40;;;0.40;;
12950;SDS011;6540;50.858;7.232;2024-03-17T01:46:03;0.50;;;0.50;;
12950;SDS011;6540;50.858;7.232;2024-03-17T01:48:29;0.40;;;0.40;;
12950;SDS011;6540;50.858;7.232;2024-03-17T01:50:55;0.30;;;0.30;;
12950;SDS011;6540;50.858;7.232;2024-03-17T01:53:21;0.40;;;0.40;;
12950;SDS011;6540;50.858;7.232;2024-03-17T01:55:50;0.30;;;0.30;;
12950;SDS011;6540;50.858;7.232;2024-03-17T01:58:17;0.40;;;0.40;;
12950;SDS011;6540;50.858;7.232;2024-03-17T02:00:45;0.30;;;0.30;;
12950;SDS011;6540;50.858;7.232;2024-03-17T02:03:10;0.40;;;0.40;;
12950;SDS011;6540;50.858;7.232;2024-03-17T02:05:37;0.50;;;0.50;;
12950;SDS011;6540;50.858;7.232;2024-03-17T02:08:05;0.40;;;0.40;;
12950;SDS011;6540;50.858;7.232;2024-03-17T02:10:34;0.30;;;0.30;;
12950;SDS011;6540;50.858;7.232;2024-03-17T02:13:00;0.33;;;0.33;;
12950;SDS011;6540;50.858;7.232;2024-03-17T02:15:26;0.40;;;0.40;;
12950;SDS011;6540;50.858;7.232;2024-03-17T02:17:51;0.40;;;0.40;;
12950;SDS011;6540;50.858;7.232;2024-03-17T02:20:17;0.50;;;0.50;;
12950;SDS011;6540;50.858;7.232;2024-03-17T02:22:43;0.40;;;0.40;;
12950;SDS011;6540;50.858;7.232;2024-03-17T02:25:08;0.50;;;0.50;;
12950;SDS011;6540;50.858;7.232;2024-03-17T02:27:34;0.40;;;0.40;;
12950;SDS011;6540;50.858;7.232;2024-03-17T02:30:01;0.40;;;0.40;;
12950;SDS011;6540;50.858;7.232;2024-03-17T02:32:27;0.30;;;0.30;;
12950;SDS011;6540;50.858;7.232;2024-03-17T02:34:54;0.53;;;0.53;;
12950;SDS011;6540;50.858;7.232;2024-03-17T02:37:20;0.40;;;0.40;;
12950;SDS011;6540;50.858;7.232;2024-03-17T02:39:45;0.50;;;0.50;;
12950;SDS011;6540;50.858;7.232;2024-03-17T02:42:11;0.40;;;0.40;;
12950;SDS011;6540;50.858;7.232;2024-03-17T02:44:37;0.37;;;0.37;;
12950;SDS011;6540;50.858;7.232;2024-03-17T02:47:04;0.40;;;0.40;;
12950;SDS011;6540;50.858;7.232;2024-03-17T02:49:33;0.83;;;0.83;;
12950;SDS011;6540;50.858;7.232;2024-03-17T02:52:05;0.60;;;0.60;;
12950;SDS011;6540;50.858;7.232;2024-03-17T02:54:32;0.50;;;0.50;;
12950;SDS011;6540;50.858;7.232;2024-03-17T02:56:59;0.40;;;0.40;;
12950;SDS011;6540;50.858;7.232;2024-03-17T02:59:24;0.50;;;0.50;;
12950;SDS011;6540;50.858;7.232;2024-03-17T03:01:50;0.40;;;0.40;;
12950;SDS011;6540;50.858;7.232;2024-03-17T03:04:16;0.30;;;0.30;;
12950;SDS011;6540;50.858;7.232;2024-03-17T03:06:41;0.40;;;0.40;;
12950;SDS011;6540;50.858;7.232;2024-03-17T03:09:07;0.57;;;0.57;;
12950;SDS011;6540;50.858;7.232;2024-03-17T03:11:38;0.30;;;0.30;;
12950;SDS011;6540;50.858;7.232;2024-03-17T03:14:04;0.40;;;0.40;;
12950;SDS011;6540;50.858;7.232;2024-03-17T03:16:30;1.20;;;1.17;;
12950;SDS011;6540;50.858;7.232;2024-03-17T03:18:55;0.40;;;0.40;;
12950;SDS011;6540;50.858;7.232;2024-03-17T03:21:20;0.37;;;0.37;;
12950;SDS011;6540;50.858;7.232;2024-03-17T03:23:47;0.30;;;0.30;;
12950;SDS011;6540;50.858;7.232;2024-03-17T03:26:12;0.40;;;0.40;;
12950;SDS011;6540;50.858;7.232;2024-03-17T03:28:38;0.50;;;0.50;;
12950;SDS011;6540;50.858;7.232;2024-03-17T03:31:04;0.50;;;0.50;;
12950;SDS011;6540;50.858;7.232;2024-03-17T03:33:29;1.17;;;1.17;;
12950;SDS011;6540;50.858;7.232;2024-03-17T03:35:55;0.40;;;0.40;;
12950;SDS011;6540;50.858;7.232;2024-03-17T03:38:21;0.50;;;0.50;;
12950;SDS011;6540;50.858;7.232;2024-03-17T03:40:50;0.30;;;0.30;;
12950;SDS011;6540;50.858;7.232;2024-03-17T03:43:15;0.30;;;0.30;;
12950;SDS011;6540;50.858;7.232;2024-03-17T03:45:40;0.93;;;0.93;;
12950;SDS011;6540;50.858;7.232;2024-03-17T03:48:06;0.43;;;0.43;;
12950;SDS011;6540;50.858;7.232;2024-03-17T03:50:35;0.50;;;0.50;;
12950;SDS011;6540;50.858;7.232;2024-03-17T03:53:02;0.40;;;0.40;;
12950;SDS011;6540;50.858;7.232;2024-03-17T03:55:27;0.30;;;0.30;;
12950;SDS011;6540;50.858;7.232;2024-03-17T03:57:54;0.50;;;0.50;;
12950;SDS011;6540;50.858;7.232;2024-03-17T04:00:19;0.40;;;0.40;;
12950;SDS011;6540;50.858;7.232;2024-03-17T04:02:49;0.73;;;0.73;;
12950;SDS011;6540;50.858;7.232;2024-03-17T04:05:15;0.20;;;0.20;;
12950;SDS011;6540;50.858;7.232;2024-03-17T04:07:41;0.40;;;0.40;;
12950;SDS011;6540;50.858;7.232;2024-03-17T04:10:08;0.70;;;0.70;;
12950;SDS011;6540;50.858;7.232;2024-03-17T04:12:34;0.30;;;0.30;;
12950;SDS011;6540;50.858;7.232;2024-03-17T04:14:59;0.40;;;0.40;;
12950;SDS011;6540;50.858;7.232;2024-03-17T04:17:25;0.50;;;0.50;;
12950;SDS011;6540;50.858;7.232;2024-03-17T04:19:52;0.30;;;0.30;;
12950;SDS011;6540;50.858;7.232;2024-03-17T04:22:18;0.30;;;0.30;;
12950;SDS011;6540;50.858;7.232;2024-03-17T04:24:44;0.50;;;0.50;;
12950;SDS011;6540;50.858;7.232;2024-03-17T04:27:11;0.43;;;0.43;;
12950;SDS011;6540;50.858;7.232;2024-03-17T04:29:38;0.40;;;0.40;;
12950;SDS011;6540;50.858;7.232;2024-03-17T04:32:04;0.20;;;0.20;;
12950;SDS011;6540;50.858;7.232;2024-03-17T04:34:30;1.40;;;1.40;;
12950;SDS011;6540;50.858;7.232;2024-03-17T04:36:56;0.40;;;0.40;;
12950;SDS011;6540;50.858;7.232;2024-03-17T04:39:22;0.30;;;0.30;;
12950;SDS011;6540;50.858;7.232;2024-03-17T04:41:48;0.30;;;0.30;;
12950;SDS011;6540;50.858;7.232;2024-03-17T04:44:13;0.40;;;0.40;;
12950;SDS011;6540;50.858;7.232;2024-03-17T04:46:39;0.30;;;0.30;;
12950;SDS011;6540;50.858;7.232;2024-03-17T04:49:05;0.20;;;0.20;;
12950;SDS011;6540;50.858;7.232;2024-03-17T04:51:30;0.40;;;0.40;;
12950;SDS011;6540;50.858;7.232;2024-03-17T04:53:58;0.33;;;0.33;;
12950;SDS011;6540;50.858;7.232;2024-03-17T04:56:23;0.20;;;0.20;;
12950;SDS011;6540;50.858;7.232;2024-03-17T04:58:49;0.30;;;0.30;;
12950;SDS011;6540;50.858;7.232;2024-03-17T05:01:14;0.40;;;0.40;;
12950;SDS011;6540;50.858;7.232;2024-03-17T05:03:42;0.60;;;0.60;;
12950;SDS011;6540;50.858;7.232;2024-03-17T05:06:07;0.20;;;0.20;;
12950;SDS011;6540;50.858;7.232;2024-03-17T05:08:33;0.30;;;0.30;;
12950;SDS011;6540;50.858;7.232;2024-03-17T05:11:02;0.17;;;0.17;;
12950;SDS011;6540;50.858;7.232;2024-03-17T05:13:32;0.40;;;0.40;;
12950;SDS011;6540;50.858;7.232;2024-03-17T05:15:59;0.30;;;0.30;;
12950;SDS011;6540;50.858;7.232;2024-03-17T05:18:26;0.40;;;0.40;;
12950;SDS011;6540;50.858;7.232;2024-03-17T05:23:25;1.00;;;1.00;;
12950;SDS011;6540;50.858;7.232;2024-03-17T05:25:52;0.97;;;0.97;;
12950;SDS011;6540;50.858;7.232;2024-03-17T05:28:17;0.40;;;0.40;;
12950;SDS011;6540;50.858;7.232;2024-03-17T05:30:42;0.20;;;0.20;;
12950;SDS011;6540;50.858;7.232;2024-03-17T05:33:08;0.33;;;0.33;;
12950;SDS011;6540;50.858;7.232;2024-03-17T05:35:33;0.63;;;0.63;;
12950;SDS011;6540;50.858;7.232;2024-03-17T05:37:58;0.60;;;0.60;;
12950;SDS011;6540;50.858;7.232;2024-03-17T05:40:24;0.30;;;0.30;;
12950;SDS011;6540;50.858;7.232;2024-03-17T05:42:49;0.30;;;0.30;;
12950;SDS011;6540;50.858;7.232;2024-03-17T05:45:20;0.50;;;0.50;;
12950;SDS011;6540;50.858;7.232;2024-03-17T05:47:45;0.30;;;0.30;;
12950;SDS011;6540;50.858;7.232;2024-03-17T05:50:10;0.47;;;0.47;;
12950;SDS011;6540;50.858;7.232;2024-03-17T05:52:37;0.33;;;0.33;;
12950;SDS011;6540;50.858;7.232;2024-03-17T05:55:03;0.77;;;0.77;;
12950;SDS011;6540;50.858;7.232;2024-03-17T05:57:28;0.40;;;0.40;;
12950;SDS011;6540;50.858;7.232;2024-03-17T05:59:54;0.30;;;0.30;;
12950;SDS011;6540;50.858;7.232;2024-03-17T06:02:20;0.30;;;0.30;;
12950;SDS011;6540;50.858;7.232;2024-03-17T06:04:46;0.60;;;0.60;;
12950;SDS011;6540;50.858;7.232;2024-03-17T06:07:11;0.40;;;0.40;;
12950;SDS011;6540;50.858;7.232;2024-03-17T06:09:39;0.30;;;0.30;;
12950;SDS011;6540;50.858;7.232;2024-03-17T06:12:04;0.40;;;0.40;;
12950;SDS011;6540;50.858;7.232;2024-03-17T06:14:31;0.30;;;0.30;;
12950;SDS011;6540;50.858;7.232;2024-03-17T06:16:56;0.40;;;0.40;;
12950;SDS011;6540;50.858;7.232;2024-03-17T06:19:22;1.17;;;1.00;;
12950;SDS011;6540;50.858;7.232;2024-03-17T06:21:47;1.90;;;1.80;;
12950;SDS011;6540;50.858;7.232;2024-03-17T06:24:13;0.50;;;0.50;;
12950;SDS011;6540;50.858;7.232;2024-03-17T06:26:38;0.50;;;0.50;;
12950;SDS011;6540;50.858;7.232;2024-03-17T06:29:03;0.40;;;0.40;;
12950;SDS011;6540;50.858;7.232;2024-03-17T06:31:29;0.30;;;0.30;;
12950;SDS011;6540;50.858;7.232;2024-03-17T06:33:54;0.40;;;0.40;;
12950;SDS011;6540;50.858;7.232;2024-03-17T06:36:19;0.33;;;0.33;;
12950;SDS011;6540;50.858;7.232;2024-03-17T06:38:45;0.40;;;0.40;;
12950;SDS011;6540;50.858;7.232;2024-03-17T06:41:10;0.40;;;0.40;;
12950;SDS011;6540;50.858;7.232;2024-03-17T06:43:35;0.50;;;0.50;;
12950;SDS011;6540;50.858;7.232;2024-03-17T06:46:01;0.57;;;0.57;;
12950;SDS011;6540;50.858;7.232;2024-03-17T06:48:27;0.20;;;0.20;;
12950;SDS011;6540;50.858;7.232;2024-03-17T06:50:53;0.40;;;0.40;;
12950;SDS011;6540;50.858;7.232;2024-03-17T06:53:23;0.40;;;0.40;;
12950;SDS011;6540;50.858;7.232;2024-03-17T06:55:56;0.40;;;0.40;;
12950;SDS011;6540;50.858;7.232;2024-03-17T06:58:22;0.60;;;0.60;;
12950;SDS011;6540;50.858;7.232;2024-03-17T07:00:52;0.87;;;0.87;;
12950;SDS011;6540;50.858;7.232;2024-03-17T07:03:28;0.60;;;0.60;;
12950;SDS011;6540;50.858;7.232;2024-03-17T07:05:55;0.50;;;0.50;;
12950;SDS011;6540;50.858;7.232;2024-03-17T07:08:21;0.40;;;0.40;;
12950;SDS011;6540;50.858;7.232;2024-03-17T07:13:28;0.60;;;0.60;;
12950;SDS011;6540;50.858;7.232;2024-03-17T07:15:57;0.40;;;0.40;;
12950;SDS011;6540;50.858;7.232;2024-03-17T07:18:27;0.40;;;0.40;;
12950;SDS011;6540;50.858;7.232;2024-03-17T07:20:56;0.40;;;0.40;;
12950;SDS011;6540;50.858;7.232;2024-03-17T07:23:22;0.40;;;0.40;;
12950;SDS011;6540;50.858;7.232;2024-03-17T07:25:54;0.30;;;0.30;;
12950;SDS011;6540;50.858;7.232;2024-03-17T07:28:21;1.07;;;1.07;;
12950;SDS011;6540;50.858;7.232;2024-03-17T07:30:47;0.40;;;0.40;;
12950;SDS011;6540;50.858;7.232;2024-03-17T07:33:17;4.93;;;1.80;;
12950;SDS011;6540;50.858;7.232;2024-03-17T07:38:14;0.90;;;0.90;;
12950;SDS011;6540;50.858;7.232;2024-03-17T07:40:40;0.40;;;0.40;;
12950;SDS011;6540;50.858;7.232;2024-03-17T07:43:06;0.40;;;0.40;;
12950;SDS011;6540;50.858;7.232;2024-03-17T07:45:32;0.40;;;0.40;;
12950;SDS011;6540;50.858;7.232;2024-03-17T07:47:57;0.40;;;0.40;;
12950;SDS011;6540;50.858;7.232;2024-03-17T07:50:23;0.53;;;0.53;;
12950;SDS011;6540;50.858;7.232;2024-03-17T07:52:49;0.40;;;0.40;;
12950;SDS011;6540;50.858;7.232;2024-03-17T07:55:14;0.50;;;0.50;;
12950;SDS011;6540;50.858;7.232;2024-03-17T07:57:40;0.60;;;0.60;;
12950;SDS011;6540;50.858;7.232;2024-03-17T08:00:06;0.40;;;0.40;;
12950;SDS011;6540;50.858;7.232;2024-03-17T08:02:40;0.50;;;0.50;;
12950;SDS011;6540;50.858;7.232;2024-03-17T08:05:14;0.50;;;0.50;;
12950;SDS011;6540;50.858;7.232;2024-03-17T08:07:40;0.50;;;0.50;;
12950;SDS011;6540;50.858;7.232;2024-03-17T08:10:07;0.40;;;0.40;;
12950;SDS011;6540;50.858;7.232;2024-03-17T08:12:32;0.50;;;0.50;;
12950;SDS011;6540;50.858;7.232;2024-03-17T08:14:58;0.60;;;0.60;;
12950;SDS011;6540;50.858;7.232;2024-03-17T08:17:24;0.57;;;0.57;;
12950;SDS011;6540;50.858;7.232;2024-03-17T08:19:50;0.50;;;0.50;;
12950;SDS011;6540;50.858;7.232;2024-03-17T08:22:15;0.60;;;0.60;;
12950;SDS011;6540;50.858;7.232;2024-03-17T08:24:40;0.57;;;0.57;;
12950;SDS011;6540;50.858;7.232;2024-03-17T08:27:09;0.50;;;0.50;;
12950;SDS011;6540;50.858;7.232;2024-03-17T08:29:34;0.40;;;0.40;;
12950;SDS011;6540;50.858;7.232;2024-03-17T08:32:00;0.40;;;0.40;;
12950;SDS011;6540;50.858;7.232;2024-03-17T08:34:25;0.20;;;0.20;;
12950;SDS011;6540;50.858;7.232;2024-03-17T08:36:50;0.30;;;0.30;;
12950;SDS011;6540;50.858;7.232;2024-03-17T08:39:16;0.20;;;0.20;;
12950;SDS011;6540;50.858;7.232;2024-03-17T08:41:41;0.40;;;0.40;;
12950;SDS011;6540;50.858;7.232;2024-03-17T08:44:09;0.40;;;0.40;;
12950;SDS011;6540;50.858;7.232;2024-03-17T08:46:34;0.20;;;0.20;;
12950;SDS011;6540;50.858;7.232;2024-03-17T08:49:00;0.37;;;0.37;;
12950;SDS011;6540;50.858;7.232;2024-03-17T08:51:25;0.20;;;0.20;;
12950;SDS011;6540;50.858;7.232;2024-03-17T08:53:50;0.20;;;0.20;;
12950;SDS011;6540;50.858;7.232;2024-03-17T08:56:17;0.20;;;0.20;;
12950;SDS011;6540;50.858;7.232;2024-03-17T08:58:43;0.30;;;0.30;;
12950;SDS011;6540;50.858;7.232;2024-03-17T09:01:08;0.20;;;0.20;;
12950;SDS011;6540;50.858;7.232;2024-03-17T09:03:34;0.30;;;0.30;;
12950;SDS011;6540;50.858;7.232;2024-03-17T09:06:00;0.10;;;0.10;;
12950;SDS011;6540;50.858;7.232;2024-03-17T09:08:26;0.60;;;0.60;;
12950;SDS011;6540;50.858;7.232;2024-03-17T09:10:53;0.33;;;0.33;;
12950;SDS011;6540;50.858;7.232;2024-03-17T09:13:20;0.37;;;0.37;;
12950;SDS011;6540;50.858;7.232;2024-03-17T09:18:27;0.13;;;0.13;;
12950;SDS011;6540;50.858;7.232;2024-03-17T09:20:59;0.20;;;0.20;;
12950;SDS011;6540;50.858;7.232;2024-03-17T09:23:25;0.40;;;0.40;;
12950;SDS011;6540;50.858;7.232;2024-03-17T09:26:00;0.20;;;0.20;;
12950;SDS011;6540;50.858;7.232;2024-03-17T09:28:30;0.30;;;0.30;;
12950;SDS011;6540;50.858;7.232;2024-03-17T09:30:56;0.30;;;0.30;;
12950;SDS011;6540;50.858;7.232;2024-03-17T09:33:23;0.27;;;0.27;;
12950;SDS011;6540;50.858;7.232;2024-03-17T09:35:56;0.40;;;0.40;;
12950;SDS011;6540;50.858;7.232;2024-03-17T09:38:24;0.20;;;0.20;;
12950;SDS011;6540;50.858;7.232;2024-03-17T09:40:49;0.30;;;0.30;;
12950;SDS011;6540;50.858;7.232;2024-03-17T09:43:18;0.10;;;0.10;;
12950;SDS011;6540;50.858;7.232;2024-03-17T09:45:45;0.10;;;0.10;;
12950;SDS011;6540;50.858;7.232;2024-03-17T09:48:13;0.20;;;0.20;;
12950;SDS011;6540;50.858;7.232;2024-03-17T09:50:40;0.20;;;0.20;;
12950;SDS011;6540;50.858;7.232;2024-03-17T09:53:06;0.30;;;0.30;;
12950;SDS011;6540;50.858;7.232;2024-03-17T09:55:33;0.20;;;0.20;;
12950;SDS011;6540;50.858;7.232;2024-03-17T09:57:59;0.17;;;0.17;;
12950;SDS011;6540;50.858;7.232;2024-03-17T10:00:24;0.20;;;0.20;;
12950;SDS011;6540;50.858;7.232;2024-03-17T10:02:49;0.10;;;0.10;;
12950;SDS011;6540;50.858;7.232;2024-03-17T10:05:19;0.10;;;0.10;;
12950;SDS011;6540;50.858;7.232;2024-03-17T10:07:46;0.10;;;0.10;;
12950;SDS011;6540;50.858;7.232;2024-03-17T10:10:13;0.23;;;0.23;;
12950;SDS011;6540;50.858;7.232;2024-03-17T10:12:39;0.20;;;0.20;;
12950;SDS011;6540;50.858;7.232;2024-03-17T10:15:04;0.03;;;0.03;;
12950;SDS011;6540;50.858;7.232;2024-03-17T10:17:33;0.20;;;0.20;;
12950;SDS011;6540;50.858;7.232;2024-03-17T10:20:19;0.00;;;0.00;;
12950;SDS011;6540;50.858;7.232;2024-03-17T10:22:58;0.00;;;0.00;;
12950;SDS011;6540;50.858;7.232;2024-03-17T10:25:24;0.00;;;0.00;;
12950;SDS011;6540;50.858;7.232;2024-03-17T10:27:51;0.00;;;0.00;;
12950;SDS011;6540;50.858;7.232;2024-03-17T10:30:18;0.00;;;0.00;;
12950;SDS011;6540;50.858;7.232;2024-03-17T10:32:45;0.20;;;0.20;;
12950;SDS011;6540;50.858;7.232;2024-03-17T10:35:30;0.20;;;0.20;;
12950;SDS011;6540;50.858;7.232;2024-03-17T10:37:58;0.30;;;0.30;;
12950;SDS011;6540;50.858;7.232;2024-03-17T10:40:25;0.20;;;0.20;;
12950;SDS011;6540;50.858;7.232;2024-03-17T10:42:52;0.00;;;0.00;;
12950;SDS011;6540;50.858;7.232;2024-03-17T10:45:17;0.00;;;0.00;;
12950;SDS011;6540;50.858;7.232;2024-03-17T10:47:49;0.00;;;0.00;;
12950;SDS011;6540;50.858;7.232;2024-03-17T10:50:16;0.10;;;0.10;;
12950;SDS011;6540;50.858;7.232;2024-03-17T10:52:47;0.10;;;0.10;;
12950;SDS011;6540;50.858;7.232;2024-03-17T10:55:23;0.00;;;0.00;;
12950;SDS011;6540;50.858;7.232;2024-03-17T10:57:53;0.10;;;0.10;;
12950;SDS011;6540;50.858;7.232;2024-03-17T11:00:23;0.00;;;0.00;;
12950;SDS011;6540;50.858;7.232;2024-03-17T11:02:50;0.00;;;0.00;;
12950;SDS011;6540;50.858;7.232;2024-03-17T11:05:20;0.10;;;0.10;;
12950;SDS011;6540;50.858;7.232;2024-03-17T11:07:49;0.10;;;0.10;;
12950;SDS011;6540;50.858;7.232;2024-03-17T11:10:18;0.00;;;0.00;;
12950;SDS011;6540;50.858;7.232;2024-03-17T11:17:52;0.00;;;0.00;;
12950;SDS011;6540;50.858;7.232;2024-03-17T11:20:21;0.00;;;0.00;;
12950;SDS011;6540;50.858;7.232;2024-03-17T11:22:51;0.00;;;0.00;;
12950;SDS011;6540;50.858;7.232;2024-03-17T11:33:45;0.10;;;0.10;;
12950;SDS011;6540;50.858;7.232;2024-03-17T11:38:56;0.10;;;0.10;;
12950;SDS011;6540;50.858;7.232;2024-03-17T11:44:12;0.00;;;0.00;;
12950;SDS011;6540;50.858;7.232;2024-03-17T11:52:11;0.20;;;0.20;;
12950;SDS011;6540;50.858;7.232;2024-03-17T11:54:39;0.00;;;0.00;;
12950;SDS011;6540;50.858;7.232;2024-03-17T11:57:06;0.00;;;0.00;;
12950;SDS011;6540;50.858;7.232;2024-03-17T11:59:35;0.03;;;0.03;;
12950;SDS011;6540;50.858;7.232;2024-03-17T12:02:02;0.00;;;0.00;;
12950;SDS011;6540;50.858;7.232;2024-03-17T12:04:38;0.00;;;0.00;;
12950;SDS011;6540;50.858;7.232;2024-03-17T12:07:07;0.00;;;0.00;;
12950;SDS011;6540;50.858;7.232;2024-03-17T12:09:37;0.00;;;0.00;;
12950;SDS011;6540;50.858;7.232;2024-03-17T12:12:08;0.00;;;0.00;;
12950;SDS011;6540;50.858;7.232;2024-03-17T12:14:38;0.00;;;0.00;;
12950;SDS011;6540;50.858;7.232;2024-03-17T12:17:07;0.00;;;0.00;;
12950;SDS011;6540;50.858;7.232;2024-03-17T12:19:37;0.00;;;0.00;;
12950;SDS011;6540;50.858;7.232;2024-03-17T12:22:04;0.00;;;0.00;;
12950;SDS011;6540;50.858;7.232;2024-03-17T12:24:31;0.10;;;0.10;;
12950;SDS011;6540;50.858;7.232;2024-03-17T12:27:01;0.00;;;0.00;;
12950;SDS011;6540;50.858;7.232;2024-03-17T12:29:30;0.00;;;0.00;;
12950;SDS011;6540;50.858;7.232;2024-03-17T12:31:58;0.00;;;0.00;;
12950;SDS011;6540;50.858;7.232;2024-03-17T12:34:27;0.00;;;0.00;;
12950;SDS011;6540;50.858;7.232;2024-03-17T12:36:54;0.00;;;0.00;;
12950;SDS011;6540;50.858;7.232;2024-03-17T12:39:24;0.00;;;0.00;;
12950;SDS011;6540;50.858;7.232;2024-03-17T12:44:38;0.20;;;0.20;;
12950;SDS011;6540;50.858;7.232;2024-03-17T12:57:48;0.03;;;0.03;;
12950;SDS011;6540;50.858;7.232;2024-03-17T13:00:34;0.00;;;0.00;;
12950;SDS011;6540;50.858;7.232;2024-03-17T13:03:05;0.00;;;0.00;;
12950;SDS011;6540;50.858;7.232;2024-03-17T13:05:32;0.00;;;0.00;;
12950;SDS011;6540;50.858;7.232;2024-03-17T13:07:58;0.03;;;0.03;;
12950;SDS011;6540;50.858;7.232;2024-03-17T13:10:24;0.00;;;0.00;;
12950;SDS011;6540;50.858;7.232;2024-03-17T13:15:27;0.00;;;0.00;;
12950;SDS011;6540;50.858;7.232;2024-03-17T13:17:54;0.00;;;0.00;;
12950;SDS011;6540;50.858;7.232;2024-03-17T13:20:19;0.00;;;0.00;;
12950;SDS011;6540;50.858;7.232;2024-03-17T13:22:45;0.00;;;0.00;;
12950;SDS011;6540;50.858;7.232;2024-03-17T13:25:14;0.00;;;0.00;;
12950;SDS011;6540;50.858;7.232;2024-03-17T13:27:46;0.10;;;0.10;;
12950;SDS011;6540;50.858;7.232;2024-03-17T13:30:13;0.10;;;0.10;;
12950;SDS011;6540;50.858;7.232;2024-03-17T13:32:39;0.00;;;0.00;;
12950;SDS011;6540;50.858;7.232;2024-03-17T13:35:10;0.00;;;0.00;;
12950;SDS011;6540;50.858;7.232;2024-03-17T13:37:41;0.00;;;0.00;;
12950;SDS011;6540;50.858;7.232;2024-03-17T13:40:07;0.00;;;0.00;;
12950;SDS011;6540;50.858;7.232;2024-03-17T13:42:35;0.00;;;0.00;;
12950;SDS011;6540;50.858;7.232;2024-03-17T13:45:00;0.00;;;0.00;;
12950;SDS011;6540;50.858;7.232;2024-03-17T13:47:25;0.00;;;0.00;;
12950;SDS011;6540;50.858;7.232;2024-03-17T13:49:51;0.00;;;0.00;;
12950;SDS011;6540;50.858;7.232;2024-03-17T13:52:16;0.00;;;0.00;;
12950;SDS011;6540;50.858;7.232;2024-03-17T13:54:43;0.00;;;0.00;;
12950;SDS011;6540;50.858;7.232;2024-03-17T13:57:08;0.00;;;0.00;;
12950;SDS011;6540;50.858;7.232;2024-03-17T13:59:33;0.00;;;0.00;;
12950;SDS011;6540;50.858;7.232;2024-03-17T14:02:00;0.00;;;0.00;;
12950;SDS011;6540;50.858;7.232;2024-03-17T14:04:27;0.00;;;0.00;;
12950;SDS011;6540;50.858;7.232;2024-03-17T14:06:52;0.03;;;0.03;;
12950;SDS011;6540;50.858;7.232;2024-03-17T14:09:18;0.00;;;0.00;;
12950;SDS011;6540;50.858;7.232;2024-03-17T14:11:43;0.53;;;0.53;;
12950;SDS011;6540;50.858;7.232;2024-03-17T14:14:10;0.00;;;0.00;;
12950;SDS011;6540;50.858;7.232;2024-03-17T14:16:36;0.00;;;0.00;;
12950;SDS011;6540;50.858;7.232;2024-03-17T14:19:01;0.00;;;0.00;;
12950;SDS011;6540;50.858;7.232;2024-03-17T14:21:27;0.00;;;0.00;;
12950;SDS011;6540;50.858;7.232;2024-03-17T14:23:53;0.00;;;0.00;;
12950;SDS011;6540;50.858;7.232;2024-03-17T14:26:19;0.00;;;0.00;;
12950;SDS011;6540;50.858;7.232;2024-03-17T14:28:44;0.00;;;0.00;;
12950;SDS011;6540;50.858;7.232;2024-03-17T14:31:11;0.10;;;0.10;;
12950;SDS011;6540;50.858;7.232;2024-03-17T14:33:36;0.10;;;0.10;;
12950;SDS011;6540;50.858;7.232;2024-03-17T14:36:02;0.00;;;0.00;;
12950;SDS011;6540;50.858;7.232;2024-03-17T14:38:28;0.00;;;0.00;;
12950;SDS011;6540;50.858;7.232;2024-03-17T14:40:53;0.00;;;0.00;;
12950;SDS011;6540;50.858;7.232;2024-03-17T14:43:19;0.00;;;0.00;;
12950;SDS011;6540;50.858;7.232;2024-03-17T14:45:44;0.00;;;0.00;;
12950;SDS011;6540;50.858;7.232;2024-03-17T14:48:10;0.00;;;0.00;;
12950;SDS011;6540;50.858;7.232;2024-03-17T14:50:36;0.00;;;0.00;;
12950;SDS011;6540;50.858;7.232;2024-03-17T14:53:02;0.00;;;0.00;;
12950;SDS011;6540;50.858;7.232;2024-03-17T14:55:27;0.00;;;0.00;;
12950;SDS011;6540;50.858;7.232;2024-03-17T14:57:55;0.00;;;0.00;;
12950;SDS011;6540;50.858;7.232;2024-03-17T15:00:21;0.03;;;0.03;;
12950;SDS011;6540;50.858;7.232;2024-03-17T15:02:48;0.00;;;0.00;;
12950;SDS011;6540;50.858;7.232;2024-03-17T15:05:15;0.00;;;0.00;;
12950;SDS011;6540;50.858;7.232;2024-03-17T15:07:41;0.00;;;0.00;;
12950;SDS011;6540;50.858;7.232;2024-03-17T15:10:07;0.07;;;0.07;;
12950;SDS011;6540;50.858;7.232;2024-03-17T15:12:33;0.00;;;0.00;;
12950;SDS011;6540;50.858;7.232;2024-03-17T15:14:58;0.00;;;0.00;;
12950;SDS011;6540;50.858;7.232;2024-03-17T15:17:24;0.00;;;0.00;;
12950;SDS011;6540;50.858;7.232;2024-03-17T15:19:50;0.00;;;0.00;;
12950;SDS011;6540;50.858;7.232;2024-03-17T15:22:15;0.00;;;0.00;;
12950;SDS011;6540;50.858;7.232;2024-03-17T15:24:40;0.00;;;0.00;;
12950;SDS011;6540;50.858;7.232;2024-03-17T15:27:06;0.00;;;0.00;;
12950;SDS011;6540;50.858;7.232;2024-03-17T15:29:31;0.00;;;0.00;;
12950;SDS011;6540;50.858;7.232;2024-03-17T15:31:57;0.00;;;0.00;;
12950;SDS011;6540;50.858;7.232;2024-03-17T15:34:23;0.00;;;0.00;;
12950;SDS011;6540;50.858;7.232;2024-03-17T15:36:48;0.00;;;0.00;;
12950;SDS011;6540;50.858;7.232;2024-03-17T15:39:14;0.00;;;0.00;;
12950;SDS011;6540;50.858;7.232;2024-03-17T15:41:40;0.00;;;0.00;;
12950;SDS011;6540;50.858;7.232;2024-03-17T15:44:06;0.00;;;0.00;;
12950;SDS011;6540;50.858;7.232;2024-03-17T15:46:31;0.00;;;0.00;;
12950;SDS011;6540;50.858;7.232;2024-03-17T15:48:57;0.00;;;0.00;;